Flight Track Log - Related Links

Times and Time Zones

All times are in EDT time to prevent confusion due to time zone crossing. See the N273SK flight status page for this flight to view local times or setup timezone preferences in your user account.

Time Position Orientation Groundspeed Altitude Reporting Facility
EDT Latitude Longitude Course Direction KTS MPH feet Rate Location/Type
Sun 08:16:24 PM 41.3975 -81.9256 276° West 198 228 3,100  Level Cleveland Center
Sun 08:17:33 PM 41.4450 -81.9681 326° Northwest 262 302 5,200 2,140 Climbing Cleveland Center
Sun 08:18:00 PM 41.6593 -81.5907 37° Northeast  Level FlightAware Approximate
Sun 08:18:33 PM 41.4669 -81.8800 72° East 218 251 7,700  Level Cleveland Center
Sun 08:19:00 PM 41.7465 -81.5035 37° Northeast  Level FlightAware Approximate
Sun 08:19:33 PM 41.4639 -81.7608 92° East 255 293 9,600  Level Cleveland Center
Sun 08:20:00 PM 41.8333 -81.4161 90° East  Level FlightAware Approximate
Sun 08:20:33 PM 41.4569 -81.6386 94° East 309 356 10,800  Level Cleveland Center
Sun 08:21:33 PM 41.4497 -81.5028 94° East 354 407 11,900 1,250 Climbing Cleveland Center
Sun 08:22:33 PM 41.4425 -81.3614 94° East 379 436 13,300 1,550 Climbing Cleveland Center
Sun 08:23:33 PM 41.4350 -81.2200 94° East 384 442 15,000 1,650 Climbing Cleveland Center
Sun 08:24:33 PM 41.4272 -81.0983 95° East 384 442 16,600 1,650 Climbing Cleveland Center
Sun 08:25:33 PM 41.4194 -80.9625 94° East 373 429 18,300 1,450 Climbing Cleveland Center
Sun 08:26:33 PM 41.4114 -80.8239 94° East 368 423 19,500 1,150 Climbing Cleveland Center
Sun 08:27:33 PM 41.4033 -80.6772 94° East 381 438 20,600 1,250 Climbing Cleveland Center
Sun 08:28:33 PM 41.3931 -80.5278 95° East 400 460 22,000 1,438 Climbing Cleveland Center
Sun 08:29:34 PM 41.3822 -80.3644 95° East 405 466 23,500 1,250 Climbing Cleveland Center
Sun 08:30:33 PM 41.3758 -80.2289 94° East 405 466 24,500 756 Climbing Cleveland Center
Sun 08:31:33 PM 41.3647 -80.0742 95° East 405 466 25,000 250 Climbing Cleveland Center
Sun 08:32:33 PM 41.3411 -79.9222 102° East 410 472 25,000  Level Cleveland Center
Sun 08:33:33 PM 41.2694 -79.8181 132° Southeast 376 433 25,000  Level Cleveland Center
Sun 08:34:33 PM 41.1917 -79.7222 137° Southeast 376 433 25,000  Level Cleveland Center
Sun 08:35:33 PM 41.1447 -79.5961 116° Southeast 381 438 25,000  Level Cleveland Center
Sun 08:36:33 PM 41.1706 -79.4578 76° East 352 405 25,000  Level Cleveland Center
Sun 08:37:33 PM 41.2425 -79.3489 49° Northeast 341 392 25,000  Level Cleveland Center
Sun 08:38:33 PM 41.2594 -79.1992 81° East 364 419 25,000  Level Cleveland Center
Sun 08:39:33 PM 41.2533 -79.0336 93° East 417 480 25,000  Level Cleveland Center
Sun 08:40:33 PM 41.2489 -78.8625 92° East 431 496 25,000  Level Cleveland Center
Sun 08:42:18 PM 41.2342 -78.5658 94° East 475 547 25,000  Level New York Center
Sun 08:43:18 PM 41.2261 -78.3689 93° East 485 558 25,000  Level New York Center
Sun 08:44:16 PM 41.2167 -78.1911 94° East 485 558 25,000  Level New York Center
Sun 08:45:17 PM 41.2003 -78.0183 97° East 485 558 25,000  Level New York Center
Sun 08:46:17 PM 41.1789 -77.8506 100° East 473 544 25,000 -446 Level New York Center
Sun 08:47:18 PM 41.1606 -77.7025 99° East 439 505 24,100 -1,059 Descending New York Center
Sun 08:48:16 PM 41.1433 -77.5683 100° East 397 457 22,900 -1,271 Descending New York Center
Sun 08:49:16 PM 41.1258 -77.4372 100° East 376 433 21,600 -1,240 Descending New York Center
Sun 08:50:17 PM 41.1097 -77.3172 100° East 364 419 20,400 -1,230 Descending New York Center
Sun 08:51:18 PM 41.0919 -77.1833 100° East 364 419 19,100 -1,150 Descending New York Center
Sun 08:52:17 PM 41.0739 -77.0522 100° East 359 413 18,100 -559 Descending New York Center
Sun 08:53:16 PM 41.0575 -76.9267 100° East 354 407 18,000 -50 Descending New York Center
Sun 08:54:16 PM 41.0411 -76.8042 100° East 343 395 18,000  Level New York Center
Sun 08:55:17 PM 41.0222 -76.6786 101° East 343 395 18,000  Level New York Center
Sun 08:56:17 PM 40.9939 -76.5361 105° East 343 395 18,000  Level New York Center
Sun 08:57:18 PM 40.9658 -76.4292 109° East 348 400 18,000  Level New York Center
Sun 08:58:18 PM 40.9325 -76.2944 108° East 348 400 18,000 -300 Level New York Center
Sun 08:59:18 PM 40.9047 -76.1742 107° East 348 400 17,400 -1,059 Descending New York Center
Sun 09:00:17 PM 40.8747 -76.0539 108° East 348 400 15,900 -1,525 Descending New York Center
Sun 09:01:16 PM 40.8483 -75.9447 108° East 325 374 14,400 -1,160 Descending New York Center
Sun 09:02:16 PM 40.8236 -75.8414 108° East 302 348 13,600 -694 Descending New York Center
Sun 09:03:17 PM 40.8006 -75.7492 108° East 275 316 13,000 -298 Descending New York Center
Sun 09:04:17 PM 40.7792 -75.6628 108° East 249 287 13,000  Level New York Center
Sun 09:05:17 PM 40.7594 -75.5819 108° East 249 287 13,000  Level New York Center
Sun 09:06:18 PM 40.7344 -75.4814 108° East 254 292 13,000 -202 Level New York Center
Sun 09:07:16 PM 40.7128 -75.3925 108° East 254 292 12,600 -504 Descending New York Center
Sun 09:08:17 PM 40.6956 -75.3036 104° East 248 285 12,000 -295 Descending New York Center
Sun 09:09:18 PM 40.6819 -75.2233 103° East 241 277 12,000  Level New York Center
Sun 09:10:16 PM 40.6642 -75.1375 105° East 241 277 12,000  Level New York Center
Sun 09:11:17 PM 40.6153 -75.1069 155° Southeast 205 236 12,000  Level New York Center
Sun 09:12:18 PM 40.6019 -75.1828 257° West 109 125 12,000  Level New York Center
Sun 09:13:18 PM 40.6178 -75.2656 284° West 194 223 12,000  Level New York Center
Sun 09:14:16 PM 40.6736 -75.2750 353° North 193 222 12,000 -150 Level New York Center
Sun 09:15:18 PM 40.6708 -75.1844 92° East 127 146 11,700 -350 Descending New York Center
Sun 09:16:16 PM 40.6464 -75.1089 113° Southeast 188 216 11,300 -350 Descending New York Center
Sun 09:17:18 PM 40.6019 -75.1333 203° Southwest 168 193 11,000 -148 Descending New York Center
Sun 09:18:18 PM 40.6108 -75.2269 277° West 185 213 11,000 -99 Level New York Center
Sun 09:19:19 PM 40.6544 -75.2872 314° West 221 254 10,800 -504 Descending New York Center
Sun 09:20:17 PM 40.6886 -75.2100 60° Northeast 164 189 10,000 -403 Descending New York Center
Sun 09:21:18 PM 40.6394 -75.1303 129° Southeast 190 219 10,000 -50 Level New York Center
Sun 09:22:16 PM 40.5961 -75.0592 129° Southeast 240 276 9,900 -51 Descending New York Center
Sun 09:23:16 PM 40.5575 -74.9750 121° Southeast 267 307 9,900  Level New York Center
Sun 09:24:16 PM 40.5258 -74.8692 111° Southeast 272 313 9,900 78 Level New York Center
Sun 09:24:33 PM 40.5167 -74.8333 109° East 279 321 10,000 156 Climbing New York TRACON
Sun 09:25:33 PM 40.5000 -74.7333 102° East 287 330 10,100  Climbing New York TRACON
Sun 09:26:33 PM 40.4833 -74.6333 102° East 295 339 10,000 -48 Descending New York TRACON
Sun 09:27:39 PM 40.4833 -74.5167 90° East 297 342 10,000 -333 Level New York TRACON
Sun 09:28:39 PM 40.4833 -74.4167 90° East 289 333 9,300 -900 Descending New York TRACON
Sun 09:29:39 PM 40.5000 -74.3167 78° East 277 319 8,200 -1,105 Descending New York TRACON
Sun 09:30:33 PM 40.5167 -74.2333 75° East 270 311 7,200 -1,050 Descending New York TRACON
Sun 09:31:39 PM 40.5333 -74.1333 78° East 232 267 6,100 -1,150 Descending New York TRACON
Sun 09:32:33 PM 40.5833 -74.0833 37° Northeast 239 275 4,900 -1,053 Descending New York TRACON
Sun 09:33:33 PM 40.6333 -74.0500 27° Northeast 237 273 4,100 -450 Descending New York TRACON
Sun 09:34:33 PM 40.7000 -74.0333 11° North 233 268 4,000 -50 Descending New York TRACON
Sun 09:35:33 PM 40.7500 -74.0167 14° North 213 245 4,000  Level New York TRACON
Sun 09:36:33 PM 40.8167 -73.9833 21° North 224 258 4,000  Level New York TRACON
Sun 09:37:39 PM 40.8833 -73.9333 30° Northeast 219 252 4,000 -200 Level New York TRACON
Sun 09:38:33 PM 40.9333 -73.9167 14° North 217 250 3,600 -526 Descending New York TRACON
Sun 09:39:33 PM 40.9667 -73.8667 49° Northeast 198 228 3,000 -300 Descending New York TRACON
Sun 09:40:33 PM 40.9833 -73.8000 72° East 189 217 3,000  Level New York TRACON
Sun 09:41:33 PM 40.9500 -73.7500 131° Southeast 175 201 3,000 -100 Level New York TRACON
Sun 09:42:33 PM 40.9167 -73.7667 201° Southwest 160 184 2,800 -500 Descending New York TRACON
Sun 09:43:33 PM 40.8833 -73.8000 217° Southwest 136 157 2,000 -800 Descending New York TRACON

Login

Don't have an account? Register now (free) for customized features, flight alerts, and more!